createdAt,value
2023-02-12T00:01:20.272Z,100095.16
2023-02-12T00:03:48.188Z,100082.13
2023-02-12T00:06:16.155Z,100083.78
2023-02-12T00:08:44.111Z,100079.88
2023-02-12T00:11:17.494Z,100085.09
2023-02-12T00:13:45.005Z,100084.06
2023-02-12T00:16:18.185Z,100080.34
2023-02-12T00:18:46.149Z,100088.06
2023-02-12T00:21:14.402Z,100095.78
2023-02-12T00:23:41.857Z,100102.84
2023-02-12T00:26:11.443Z,100107.22
2023-02-12T00:28:39.456Z,100111.41
2023-02-12T00:31:13.094Z,100106.00
2023-02-12T00:33:40.984Z,100099.59
2023-02-12T00:36:09.689Z,100102.72
2023-02-12T00:38:36.800Z,100098.19
2023-02-12T00:41:04.126Z,100115.00
2023-02-12T00:43:30.983Z,100104.03
2023-02-12T00:45:58.714Z,100098.44
2023-02-12T00:48:26.406Z,100113.41
2023-02-12T00:50:53.265Z,100108.00
2023-02-12T00:53:20.392Z,100117.63
2023-02-12T00:55:47.558Z,100116.78
2023-02-12T00:58:18.861Z,100108.31
2023-02-12T01:00:46.620Z,100108.09
2023-02-12T01:03:13.760Z,100117.88
2023-02-12T01:05:41.742Z,100126.62
2023-02-12T01:08:08.989Z,100112.09
2023-02-12T01:10:36.139Z,100108.37
2023-02-12T01:13:03.370Z,100121.84
2023-02-12T01:15:30.191Z,100116.47
2023-02-12T01:17:57.302Z,100127.25
2023-02-12T01:20:26.103Z,100127.25
2023-02-12T01:22:53.599Z,100122.69
2023-02-12T01:25:20.966Z,100126.22
2023-02-12T01:27:48.472Z,100123.53
2023-02-12T01:30:16.131Z,100106.50
2023-02-12T01:32:44.410Z,100114.59
2023-02-12T01:35:11.617Z,100116.47
2023-02-12T01:37:39.180Z,100123.72
2023-02-12T01:40:08.160Z,100118.97
2023-02-12T01:42:35.770Z,100116.47
2023-02-12T01:45:17.870Z,100114.59
2023-02-12T01:47:46.118Z,100117.31
2023-02-12T01:50:17.451Z,100137.22
2023-02-12T01:52:50.888Z,100129.97
2023-02-12T01:55:20.432Z,100132.84
2023-02-12T01:57:48.688Z,100133.69
2023-02-12T02:00:19.986Z,100139.91
2023-02-12T02:02:53.395Z,100149.69
2023-02-12T02:06:08.842Z,100158.16
2023-02-12T02:08:37.453Z,100170.81
2023-02-12T02:11:24.856Z,100177.03
2023-02-12T02:17:04.547Z,100166.63
2023-02-12T02:20:00.140Z,100156.66
2023-02-12T02:22:28.025Z,100163.09
2023-02-12T02:25:32.415Z,100164.12
2023-02-12T02:28:21.082Z,100167.84
2023-02-12T02:31:03.222Z,100158.09
2023-02-12T02:33:46.098Z,100164.31
2023-02-12T02:36:12.908Z,100155.19
2023-02-12T02:38:58.750Z,100156.22
2023-02-12T02:41:51.099Z,100162.44
2023-02-12T02:44:28.669Z,100166.81
2023-02-12T02:46:59.169Z,100161.63
2023-02-12T02:49:34.328Z,100167.00
2023-02-12T02:52:08.298Z,100165.16
2023-02-12T02:54:44.729Z,100163.28
2023-02-12T02:57:25.264Z,100171.56
2023-02-12T03:00:04.139Z,100162.63
2023-02-12T03:02:38.810Z,100164.31
2023-02-12T03:05:16.349Z,100176.78
2023-02-12T03:07:53.449Z,100173.25
2023-02-12T03:10:26.962Z,100167.66
2023-02-12T03:12:55.896Z,100167.66
2023-02-12T03:18:54.036Z,100159.56
2023-02-12T03:21:29.419Z,100162.25
2023-02-12T03:24:29.395Z,100161.63
2023-02-12T03:27:05.473Z,100161.63
2023-02-12T03:29:33.409Z,100147.94
2023-02-12T03:32:08.646Z,100152.50
2023-02-12T03:34:51.027Z,100145.44
2023-02-12T03:37:35.020Z,100131.94
2023-02-12T03:40:19.756Z,100142.09
2023-02-12T03:43:07.460Z,100131.09
2023-02-12T03:45:35.047Z,100138.38
2023-02-12T03:48:01.873Z,100123.34
2023-02-12T03:50:55.752Z,100123.75
2023-02-12T03:53:23.462Z,100139.94
2023-02-12T03:55:57.262Z,100132.03
2023-02-12T03:58:28.460Z,100138.25
2023-02-12T04:00:55.691Z,100143.66
2023-02-12T04:03:23.218Z,100155.47
2023-02-12T04:05:50.547Z,100157.31
2023-02-12T04:08:17.487Z,100159.19
2023-02-12T04:11:07.051Z,100167.47
2023-02-12T04:13:54.849Z,100173.88
2023-02-12T04:16:54.604Z,100169.53
2023-02-12T04:19:34.966Z,100168.50
2023-02-12T04:22:11.508Z,100174.25
2023-02-12T04:25:08.504Z,100174.25
2023-02-12T04:27:38.900Z,100186.28
2023-02-12T04:30:35.094Z,100195.19
2023-02-12T04:33:05.581Z,100197.25
2023-02-12T04:35:40.765Z,100208.88
2023-02-12T04:38:16.999Z,100225.44
2023-02-12T04:40:44.719Z,100221.88
2023-02-12T04:43:12.222Z,100220.03
2023-02-12T04:45:39.604Z,100221.41
2023-02-12T04:48:07.014Z,100224.28
2023-02-12T04:50:43.667Z,100226.31
2023-02-12T04:53:11.464Z,100229.03
2023-02-12T04:55:38.566Z,100238.31
2023-02-12T04:58:07.192Z,100243.53
2023-02-12T05:00:34.179Z,100250.97
2023-02-12T05:03:01.394Z,100254.13
2023-02-12T05:05:28.594Z,100260.34
2023-02-12T05:07:55.504Z,100263.25
2023-02-12T05:10:22.822Z,100263.91
2023-02-12T05:12:52.769Z,100271.16
2023-02-12T05:15:20.316Z,100271.16
2023-02-12T05:17:47.642Z,100269.09
2023-02-12T05:20:15.284Z,100275.34
2023-02-12T05:22:42.524Z,100272.62
2023-02-12T05:25:09.525Z,100268.75
2023-02-12T05:27:37.169Z,100274.16
2023-02-12T05:30:05.663Z,100272.13
2023-02-12T05:32:33.084Z,100280.38
2023-02-12T05:35:00.288Z,100286.62
2023-02-12T05:37:27.718Z,100286.25
2023-02-12T05:39:54.992Z,100273.78
2023-02-12T05:42:22.588Z,100277.59
2023-02-12T05:44:49.772Z,100281.31
2023-02-12T05:47:17.192Z,100276.75
2023-02-12T05:49:45.438Z,100279.28
2023-02-12T05:52:13.005Z,100290.91
2023-02-12T05:54:39.949Z,100295.47
2023-02-12T05:57:07.747Z,100306.06
2023-02-12T05:59:34.757Z,100315.63
2023-02-12T06:02:02.146Z,100318.81
2023-02-12T06:04:30.010Z,100311.72
2023-02-12T06:06:57.544Z,100335.19
2023-02-12T06:09:25.491Z,100339.09
2023-02-12T06:11:52.797Z,100335.53
2023-02-12T06:14:21.981Z,100341.97
2023-02-12T06:16:51.238Z,100333.03
2023-02-12T06:19:20.038Z,100340.09
2023-02-12T06:21:48.008Z,100340.09
2023-02-12T06:24:17.117Z,100352.94
2023-02-12T06:26:45.233Z,100356.66
2023-02-12T06:29:13.388Z,100367.62
2023-02-12T06:31:40.849Z,100364.75
2023-02-12T06:34:11.461Z,100368.47
2023-02-12T06:36:40.363Z,100370.16
2023-02-12T06:39:08.275Z,100363.06
2023-02-12T06:41:35.585Z,100373.03
2023-02-12T06:44:03.242Z,100373.03
2023-02-12T06:46:30.519Z,100381.12
2023-02-12T06:49:00.844Z,100379.91
2023-02-12T06:51:29.709Z,100397.59
2023-02-12T06:53:57.180Z,100393.69
2023-02-12T06:56:25.721Z,100390.81
2023-02-12T06:58:56.221Z,100395.19
2023-02-12T07:01:26.432Z,100402.44
2023-02-12T07:03:56.696Z,100394.81
2023-02-12T07:06:24.758Z,100400.06
2023-02-12T07:08:52.423Z,100404.06
2023-02-12T07:11:24.107Z,100392.25
2023-02-12T07:13:51.461Z,100389.53
2023-02-12T07:16:23.945Z,100393.91
2023-02-12T07:18:53.586Z,100384.44
2023-02-12T07:21:20.743Z,100390.47
2023-02-12T07:23:51.208Z,100393.84
2023-02-12T07:26:20.846Z,100397.84
2023-02-12T07:28:47.934Z,100393.94
2023-02-12T07:34:38.970Z,100390.34
2023-02-12T07:37:07.897Z,100390.81
2023-02-12T07:39:35.131Z,100398.06
2023-02-12T07:42:02.135Z,100400.38
2023-02-12T07:44:29.771Z,100411.84
2023-02-12T07:46:57.203Z,100416.69
2023-02-12T07:49:24.291Z,100409.22
2023-02-12T07:51:53.348Z,100412.56
2023-02-12T07:54:23.049Z,100413.06
2023-02-12T07:56:51.072Z,100411.03
2023-02-12T07:59:20.128Z,100415.22
2023-02-12T08:01:49.767Z,100427.69
2023-02-12T08:04:20.217Z,100437.28
2023-02-12T08:06:49.965Z,100433.19
2023-02-12T08:09:25.349Z,100449.84
2023-02-12T08:11:53.459Z,100440.72
2023-02-12T08:14:21.744Z,100457.25
2023-02-12T08:16:49.995Z,100456.88
2023-02-12T08:19:21.201Z,100459.19
2023-02-12T08:21:53.594Z,100467.94
2023-02-12T08:24:22.326Z,100470.28
2023-02-12T08:26:50.132Z,100470.53
2023-02-12T08:29:24.492Z,100457.69
2023-02-12T08:31:56.661Z,100468.97
2023-02-12T08:34:26.776Z,100468.59
2023-02-12T08:37:13.507Z,100471.59
2023-02-12T08:39:40.724Z,100482.66
2023-02-12T08:42:07.969Z,100470.25
2023-02-12T08:44:35.503Z,100470.53
2023-02-12T08:47:03.088Z,100457.50
2023-02-12T08:49:30.818Z,100465.22
2023-02-12T08:51:59.406Z,100452.16
2023-02-12T08:54:29.333Z,100457.84
2023-02-12T08:57:04.142Z,100459.53
2023-02-12T08:59:32.085Z,100456.44
2023-02-12T09:02:00.043Z,100452.50
2023-02-12T09:04:28.684Z,100455.84
2023-02-12T09:06:56.714Z,100463.63
2023-02-12T09:09:23.963Z,100468.00
2023-02-12T09:11:51.465Z,100473.22
2023-02-12T09:14:24.802Z,100474.72
2023-02-12T09:16:53.354Z,100478.09
2023-02-12T09:19:21.490Z,100493.94
2023-02-12T09:21:55.575Z,100478.34
2023-02-12T09:24:25.262Z,100509.78
2023-02-12T09:26:52.203Z,100515.63
2023-02-12T09:29:24.023Z,100526.91
2023-02-12T09:31:51.604Z,100524.69
2023-02-12T09:34:18.937Z,100530.75
2023-02-12T09:36:45.940Z,100526.62
2023-02-12T09:39:13.536Z,100519.16
2023-02-12T09:41:59.418Z,100521.28
2023-02-12T09:44:26.924Z,100531.53
2023-02-12T09:47:03.312Z,100528.44
2023-02-12T09:49:33.909Z,100537.03
2023-02-12T09:52:01.769Z,100530.22
2023-02-12T09:54:39.218Z,100531.50
2023-02-12T09:57:17.056Z,100548.00
2023-02-12T10:00:09.534Z,100550.31
2023-02-12T10:02:39.503Z,100547.22
2023-02-12T10:05:17.514Z,100545.00
2023-02-12T10:08:14.495Z,100546.28
2023-02-12T10:10:59.954Z,100545.06
2023-02-12T10:14:04.625Z,100546.34
2023-02-12T10:16:50.751Z,100557.62
2023-02-12T10:19:31.114Z,100557.22
2023-02-12T10:22:19.390Z,100571.22
2023-02-12T10:24:58.321Z,100572.06
2023-02-12T10:27:40.041Z,100572.53
2023-02-12T10:30:26.253Z,100573.38
2023-02-12T10:32:59.035Z,100578.41
2023-02-12T10:35:27.327Z,100576.16
2023-02-12T10:38:18.190Z,100575.75
2023-02-12T10:40:46.423Z,100567.22
2023-02-12T10:43:14.875Z,100561.41
2023-02-12T10:45:43.616Z,100558.31
2023-02-12T10:48:22.134Z,100565.03
2023-02-12T10:51:08.408Z,100559.88
2023-02-12T10:53:37.738Z,100559.28
2023-02-12T10:56:19.782Z,100561.41
2023-02-12T10:58:50.672Z,100561.00
2023-02-12T11:01:37.207Z,100548.94
2023-02-12T11:04:25.233Z,100552.94
2023-02-12T11:06:59.161Z,100557.34
2023-02-12T11:09:37.002Z,100560.88
2023-02-12T11:12:05.255Z,100568.63
2023-02-12T11:14:33.647Z,100565.72
2023-02-12T11:17:03.561Z,100557.19
2023-02-12T11:19:34.484Z,100569.50
2023-02-12T11:22:11.399Z,100553.22
2023-02-12T11:24:39.429Z,100549.47
2023-02-12T11:27:15.833Z,100547.81
2023-02-12T11:29:49.151Z,100537.81
2023-02-12T11:32:21.046Z,100541.34
2023-02-12T11:35:05.271Z,100541.16
2023-02-12T11:37:38.816Z,100534.88
2023-02-12T11:40:07.953Z,100544.69
2023-02-12T11:42:39.304Z,100545.53
2023-02-12T11:45:07.265Z,100536.56
2023-02-12T11:47:36.483Z,100548.25
2023-02-12T11:50:09.718Z,100547.41
2023-02-12T11:53:22.594Z,100544.69
2023-02-12T12:03:58.772Z,100539.50
2023-02-12T12:06:52.604Z,100536.44
2023-02-12T12:09:36.382Z,100543.31
2023-02-12T12:12:26.032Z,100543.13
2023-02-12T12:15:20.929Z,100545.44
2023-02-12T12:18:48.781Z,100535.84
2023-02-12T12:21:31.909Z,100521.06
2023-02-12T12:24:31.583Z,100525.88
2023-02-12T12:27:15.025Z,100524.47
2023-02-12T12:29:54.001Z,100531.38
2023-02-12T12:32:25.444Z,100528.47
2023-02-12T12:34:53.053Z,100524.72
2023-02-12T12:37:43.205Z,100519.28
2023-02-12T12:40:14.246Z,100516.38
2023-02-12T12:42:44.684Z,100514.09
2023-02-12T12:45:31.143Z,100501.16
2023-02-12T12:48:26.592Z,100502.44
2023-02-12T12:51:09.730Z,100502.03
2023-02-12T12:53:44.381Z,100498.06
2023-02-12T12:56:32.346Z,100490.59
2023-02-12T12:59:11.587Z,100495.19
2023-02-12T13:02:01.870Z,100495.81
2023-02-12T13:04:49.757Z,100492.69
2023-02-12T13:07:17.874Z,100495.00
2023-02-12T13:10:05.352Z,100497.50
2023-02-12T13:13:06.270Z,100479.12
2023-02-12T13:15:58.053Z,100479.56
2023-02-12T13:18:38.242Z,100476.63
2023-02-12T13:21:16.723Z,100479.34
2023-02-12T13:24:01.310Z,100478.31
2023-02-12T13:26:50.027Z,100479.97
2023-02-12T13:29:21.138Z,100492.72
2023-02-12T13:31:58.031Z,100502.53
2023-02-12T13:34:30.195Z,100492.72
2023-02-12T13:37:02.739Z,100489.16
2023-02-12T13:39:36.005Z,100486.25
2023-02-12T13:42:16.775Z,100487.06
2023-02-12T13:44:56.529Z,100480.41
2023-02-12T13:47:41.099Z,100484.81
2023-02-12T13:50:37.140Z,100475.44
2023-02-12T13:53:30.246Z,100488.78
2023-02-12T13:56:27.825Z,100488.78
2023-02-12T13:59:01.775Z,100474.37
2023-02-12T14:01:50.879Z,100483.56
2023-02-12T14:04:22.451Z,100478.13
2023-02-12T14:07:05.703Z,100485.25
2023-02-12T14:09:36.855Z,100484.81
2023-02-12T14:12:09.032Z,100483.97
2023-02-12T14:14:49.344Z,100476.00
2023-02-12T14:17:29.552Z,100481.44
2023-02-12T14:20:25.761Z,100471.00
2023-02-12T14:23:26.963Z,100479.16
2023-02-12T14:26:31.803Z,100489.38
2023-02-12T14:29:29.903Z,100489.38
2023-02-12T14:32:09.362Z,100484.97
2023-02-12T14:34:43.506Z,100498.13
2023-02-12T14:37:55.111Z,100496.66
2023-02-12T14:45:55.783Z,100500.00
2023-02-12T14:52:22.122Z,100505.56
2023-02-12T14:55:30.655Z,100493.66
2023-02-12T14:58:07.231Z,100507.44
2023-02-12T15:00:39.809Z,100508.03
2023-02-12T15:03:15.041Z,100516.59
2023-02-12T15:06:07.815Z,100511.94
2023-02-12T15:09:00.765Z,100524.00
2023-02-12T15:11:37.888Z,100526.28
2023-02-12T15:14:23.574Z,100522.09
2023-02-12T15:17:01.182Z,100528.97
2023-02-12T15:19:40.879Z,100528.53
2023-02-12T15:22:49.596Z,100523.31
2023-02-12T15:25:26.512Z,100527.44
2023-02-12T15:28:16.212Z,100525.94
2023-02-12T15:30:48.395Z,100532.25
2023-02-12T15:33:37.162Z,100545.53
2023-02-12T15:36:13.482Z,100532.19
2023-02-12T15:38:59.803Z,100532.19
2023-02-12T15:44:50.322Z,100528.59
2023-02-12T15:47:41.862Z,100535.69
2023-02-12T15:50:48.887Z,100540.28
2023-02-12T15:54:00.731Z,100537.75
2023-02-12T15:56:45.877Z,100533.38
2023-02-12T15:59:24.149Z,100542.53
2023-02-12T16:02:03.716Z,100545.47
2023-02-12T16:04:39.620Z,100552.13
2023-02-12T16:07:17.527Z,100544.34
2023-02-12T16:09:54.664Z,100551.00
2023-02-12T16:12:44.258Z,100545.97
2023-02-12T16:15:33.125Z,100553.66
2023-02-12T16:18:06.345Z,100557.59
2023-02-12T16:20:37.278Z,100552.16
2023-02-12T16:23:16.892Z,100561.69
2023-02-12T16:26:06.458Z,100560.59
2023-02-12T16:28:38.709Z,100561.81
2023-02-12T16:31:32.624Z,100563.88
2023-02-12T16:34:03.728Z,100566.16
2023-02-12T16:36:33.987Z,100573.81
2023-02-12T16:39:06.132Z,100573.19
2023-02-12T16:41:52.733Z,100587.31
2023-02-12T16:44:25.918Z,100583.47
2023-02-12T16:46:57.748Z,100599.09
2023-02-12T16:49:27.417Z,100596.56
2023-02-12T16:52:20.365Z,100606.94
2023-02-12T16:54:52.209Z,100604.44
2023-02-12T16:57:22.901Z,100605.00
2023-02-12T16:59:50.997Z,100613.53
2023-02-12T17:02:21.937Z,100616.59
2023-02-12T17:04:55.109Z,100613.22
2023-02-12T17:07:29.138Z,100616.97
2023-02-12T17:09:59.616Z,100627.16
2023-02-12T17:12:29.442Z,100636.87
2023-02-12T17:14:59.556Z,100638.94
2023-02-12T17:17:28.516Z,100632.03
2023-02-12T17:19:57.676Z,100631.38
2023-02-12T17:22:29.223Z,100623.16
2023-02-12T17:25:01.845Z,100638.47
2023-02-12T17:27:31.287Z,100640.72
2023-02-12T17:30:01.092Z,100642.50
2023-02-12T17:32:29.906Z,100650.34
2023-02-12T17:34:58.157Z,100648.50
2023-02-12T17:37:28.119Z,100645.66
2023-02-12T17:39:58.194Z,100655.28
2023-02-12T17:42:26.911Z,100656.50
2023-02-12T17:45:01.865Z,100656.69
2023-02-12T17:47:35.562Z,100658.91
2023-02-12T17:50:05.857Z,100659.47
2023-02-12T17:52:53.813Z,100653.94
2023-02-12T17:55:22.650Z,100659.34
2023-02-12T17:57:55.716Z,100669.16
2023-02-12T18:00:26.112Z,100667.81
2023-02-12T18:02:55.743Z,100668.38
2023-02-12T18:05:25.035Z,100673.31
2023-02-12T18:07:56.788Z,100670.78
2023-02-12T18:10:26.888Z,100670.69
2023-02-12T18:12:56.460Z,100673.22
2023-02-12T18:15:26.180Z,100671.72
2023-02-12T18:17:57.886Z,100675.44
2023-02-12T18:20:30.175Z,100680.19
2023-02-12T18:22:59.401Z,100678.53
2023-02-12T18:25:28.560Z,100680.91
2023-02-12T18:27:58.145Z,100668.22
2023-02-12T18:30:28.988Z,100678.22
2023-02-12T18:32:59.782Z,100692.28
2023-02-12T18:35:28.660Z,100692.09
2023-02-12T18:37:58.080Z,100683.63
2023-02-12T18:40:27.521Z,100682.41
2023-02-12T18:42:55.884Z,100680.91
2023-02-12T18:45:25.077Z,100675.13
2023-02-12T18:47:55.531Z,100667.22
2023-02-12T18:50:25.710Z,100673.16
2023-02-12T18:52:56.388Z,100680.25
2023-02-12T18:55:25.880Z,100680.44
2023-02-12T18:57:56.398Z,100682.13
2023-02-12T19:00:25.796Z,100680.63
2023-02-12T19:02:56.217Z,100674.56
2023-02-12T19:05:27.533Z,100676.91
2023-02-12T19:07:57.347Z,100677.09
2023-02-12T19:10:26.430Z,100677.09
2023-02-12T19:12:57.056Z,100682.47
2023-02-12T19:15:31.342Z,100682.47
2023-02-12T19:18:02.478Z,100678.75
2023-02-12T19:20:33.227Z,100680.81
2023-02-12T19:23:04.232Z,100686.22
2023-02-12T19:25:41.845Z,100687.87
2023-02-12T19:28:13.618Z,100683.69
2023-02-12T19:30:49.656Z,100686.56
2023-02-12T19:33:21.390Z,100688.44
2023-02-12T19:36:03.360Z,100685.75
2023-02-12T19:38:33.877Z,100689.47
2023-02-12T19:41:08.689Z,100696.06
2023-02-12T19:43:38.658Z,100694.59
2023-02-12T19:46:15.083Z,100703.72
2023-02-12T19:51:31.299Z,100696.78
2023-02-12T19:54:08.142Z,100696.97
2023-02-12T19:56:38.493Z,100695.47
2023-02-12T19:59:08.989Z,100706.44
2023-02-12T20:01:38.244Z,100703.28
2023-02-12T20:04:08.921Z,100708.03
2023-02-12T20:06:39.933Z,100708.03
2023-02-12T20:09:09.518Z,100707.19
2023-02-12T20:11:40.239Z,100704.84
2023-02-12T20:14:12.757Z,100706.53
2023-02-12T20:16:47.543Z,100707.38
2023-02-12T20:19:20.099Z,100705.50
2023-02-12T20:21:57.659Z,100705.03
2023-02-12T20:24:31.192Z,100697.28
2023-02-12T20:27:02.880Z,100698.63
2023-02-12T20:29:31.841Z,100690.53
2023-02-12T20:32:01.125Z,100695.94
2023-02-12T20:34:32.948Z,100700.84
2023-02-12T20:37:07.835Z,100698.50
2023-02-12T20:39:36.375Z,100700.56
2023-02-12T20:42:05.067Z,100702.41
2023-02-12T20:44:34.710Z,100709.84
2023-02-12T20:47:03.565Z,100705.00
2023-02-12T20:49:32.658Z,100714.31
2023-02-12T20:52:00.742Z,100709.25
2023-02-12T20:54:29.543Z,100704.53
2023-02-12T20:56:58.987Z,100706.47
2023-02-12T21:00:04.576Z,100701.06
2023-02-12T21:02:35.884Z,100700.75
2023-02-12T21:05:05.184Z,100704.00
2023-02-12T21:07:33.745Z,100699.97
2023-02-12T21:10:02.102Z,100704.53
2023-02-12T21:12:30.710Z,100703.88
2023-02-12T21:14:59.930Z,100695.97
2023-02-12T21:17:28.197Z,100703.03
2023-02-12T21:19:57.382Z,100716.72
2023-02-12T21:22:25.768Z,100712.16
2023-02-12T21:24:54.412Z,100708.47
2023-02-12T21:30:24.777Z,100702.75
2023-02-12T21:32:54.450Z,100700.38
2023-02-12T21:35:23.424Z,100709.19
2023-02-12T21:37:52.305Z,100698.41
2023-02-12T21:40:22.969Z,100704.31
2023-02-12T21:42:50.640Z,100703.66
2023-02-12T21:45:18.515Z,100700.97
2023-02-12T21:47:46.213Z,100708.37
2023-02-12T21:50:14.619Z,100701.78
2023-02-12T21:52:42.712Z,100710.41
2023-02-12T21:55:11.188Z,100708.88
2023-02-12T21:57:38.936Z,100709.75
2023-02-12T22:00:07.956Z,100714.66
2023-02-12T22:02:35.908Z,100712.13
2023-02-12T22:05:02.948Z,100710.44
2023-02-12T22:07:30.601Z,100705.41
2023-02-12T22:09:57.600Z,100713.84
2023-02-12T22:12:25.065Z,100703.22
2023-02-12T22:14:52.586Z,100699.66
2023-02-12T22:17:19.945Z,100697.97
2023-02-12T22:19:47.241Z,100705.75
2023-02-12T22:22:14.299Z,100716.03
2023-02-12T22:24:41.605Z,100718.06
2023-02-12T22:27:09.434Z,100714.53
2023-02-12T22:29:36.810Z,100720.09
2023-02-12T22:32:04.274Z,100718.22
2023-02-12T22:34:31.657Z,100714.84
2023-02-12T22:36:58.955Z,100720.44
2023-02-12T22:39:30.400Z,100724.97
2023-02-12T22:41:57.657Z,100724.78
2023-02-12T22:44:24.992Z,100720.75
2023-02-12T22:46:52.388Z,100721.59
2023-02-12T22:49:19.662Z,100720.09
2023-02-12T22:51:46.954Z,100719.94
2023-02-12T22:54:16.186Z,100720.59
2023-02-12T22:56:43.938Z,100720.59
2023-02-12T22:59:12.834Z,100716.56
2023-02-12T23:01:40.424Z,100712.63
2023-02-12T23:04:11.257Z,100718.69
2023-02-12T23:06:40.593Z,100712.97
2023-02-12T23:09:08.111Z,100710.78
2023-02-12T23:11:35.242Z,100714.50
2023-02-12T23:14:02.443Z,100717.53
2023-02-12T23:16:29.941Z,100710.78
2023-02-12T23:18:59.453Z,100710.63
2023-02-12T23:21:29.343Z,100712.66
2023-02-12T23:23:59.227Z,100716.50
2023-02-12T23:26:27.707Z,100717.50
2023-02-12T23:28:56.135Z,100724.72
2023-02-12T23:31:23.446Z,100723.06
2023-02-12T23:33:50.517Z,100715.31
2023-02-12T23:36:17.815Z,100712.78
2023-02-12T23:38:44.994Z,100730.12
2023-02-12T23:41:12.587Z,100731.63
2023-02-12T23:43:39.530Z,100729.94
2023-02-12T23:46:06.852Z,100722.19
2023-02-12T23:48:34.376Z,100724.53
2023-02-12T23:51:01.627Z,100727.38
2023-02-12T23:53:28.960Z,100734.78
2023-02-12T23:55:56.149Z,100725.69
2023-02-12T23:58:23.416Z,100721.31
